UKBB/KBP METAR and TAF weather

Enter ICAO airport designator
Station Type Date Time Source
UKBB METAR 2019/02/23 23:30 UTC NOAA

UKBB 232330Z 32002MPS CAVOK M03/M10 Q1036 R88/CLRD// NOSIG


Station Type Date Time Source
UKBB Decoded METAR 2019/02/23 23:30 UTC NOAA

Boryspil, Ukraine (UKBB) 50-20N 030-58E 122M
Feb 23, 2019 - 06:30 PM EST / 2019.02.23 2330 UTC
Wind: from the NW (320 degrees) at 4 MPH (4 KT):0
Visibility: greater than 7 mile(s):0
Temperature: 26 F (-3 C)
Dew Point: 14 F (-10 C)
Relative Humidity: 58%
Pressure (altimeter): 30.59 in. Hg (1036 hPa)
ob: UKBB 232330Z 32002MPS CAVOK M03/M10 Q1036 R88/CLRD// NOSIG
cycle: 23

Station Type Date Time Source
UKBB TAF 2019/02/23 18:24 UTC NOAA

TAF TAF UKBB 231701Z 2318/2418 30003G08MPS 6000 BKN010 TXM01/2412Z TNM08/2403Z
TEMPO 2321/2408 2000 -SHSN BR BKN006 SCT015CB


Example: see airport list